Time;durP1;ratioP1;P1;durP2;ratioP2;P2;SDS_P1;SDS_P2;PMS_P1;PMS_P2;Temp;Humidity;BMP_temperature;BMP_pressure;BME280_temperature;BME280_humidity;BME280_pressure;Samples;Min_cycle;Max_cycle;Signal;HPM_P1;HPM_P2
2022/12/25 15:38:35;;;;;;;8.47;4.87;;;12.70;99.90;;;;;;5091978;27;20906;-67
2022/12/25 15:41:01;;;;;;;3.77;3.47;;;12.70;99.90;;;;;;5091228;28;20436;-65
2022/12/25 15:43:28;;;;;;;3.97;3.67;;;12.80;99.90;;;;;;5092131;28;20473;-64
2022/12/25 15:45:55;;;;;;;3.83;3.50;;;12.90;99.90;;;;;;5091858;28;20450;-66
2022/12/25 15:48:22;;;;;;;3.23;3.03;;;13.10;99.90;;;;;;5092188;28;20499;-71
2022/12/25 15:50:49;;;;;;;3.97;3.30;;;13.40;99.90;;;;;;5092062;28;20445;-63
2022/12/25 15:53:15;;;;;;;5.03;3.30;;;13.50;99.90;;;;;;5091308;28;20473;-71
2022/12/25 15:55:43;;;;;;;3.90;3.47;;;13.70;99.90;;;;;;5091844;28;20453;-66
2022/12/25 15:58:13;;;;;;;3.70;2.93;;;13.90;99.90;;;;;;5090838;28;20883;-65
2022/12/25 16:00:40;;;;;;;3.70;3.40;;;14.00;99.90;;;;;;5091553;28;20477;-64
2022/12/25 16:03:07;;;;;;;3.83;3.53;;;14.20;99.90;;;;;;5091590;28;20472;-67
2022/12/25 16:05:33;;;;;;;3.80;3.50;;;14.30;99.90;;;;;;5091387;28;20449;-64
2022/12/25 16:08:00;;;;;;;2.57;2.47;;;14.40;99.90;;;;;;5091512;28;20445;-66
2022/12/25 16:10:27;;;;;;;3.23;3.03;;;14.50;99.90;;;;;;5091207;28;20458;-65
2022/12/25 16:12:55;;;;;;;3.53;3.30;;;14.60;99.90;;;;;;5091002;28;20544;-63
2022/12/25 16:15:21;;;;;;;3.47;3.03;;;14.70;99.90;;;;;;5091680;28;20449;-64
2022/12/25 16:17:48;;;;;;;2.70;2.50;;;14.80;99.90;;;;;;5091958;28;20570;-65
2022/12/25 16:20:15;;;;;;;2.40;2.30;;;14.80;99.90;;;;;;5091894;28;20872;-64
2022/12/25 16:22:41;;;;;;;3.03;2.80;;;14.90;99.90;;;;;;5091739;28;20477;-64
2022/12/25 16:25:14;;;;;;;2.33;2.23;;;15.00;99.90;;;;;;5090657;28;20933;-64
2022/12/25 16:27:41;;;;;;;4.57;2.93;;;15.00;99.90;;;;;;5091207;28;20434;-64
2022/12/25 16:30:10;;;;;;;3.03;2.83;;;15.00;99.90;;;;;;5090615;28;20452;-64
2022/12/25 16:32:37;;;;;;;3.60;3.30;;;15.10;99.90;;;;;;5090626;28;20550;-64
2022/12/25 16:35:05;;;;;;;3.37;3.17;;;15.10;99.90;;;;;;5090826;28;20449;-65
2022/12/25 16:37:31;;;;;;;3.00;2.80;;;15.10;99.90;;;;;;5089872;28;20484;-64
2022/12/25 16:39:58;;;;;;;2.60;2.50;;;15.20;99.90;;;;;;5090348;28;20502;-64
2022/12/25 16:42:25;;;;;;;4.37;3.23;;;15.20;99.90;;;;;;5090179;28;20473;-65
2022/12/25 16:44:51;;;;;;;3.30;2.67;;;15.30;99.90;;;;;;5090373;28;20453;-64
2022/12/25 16:47:19;;;;;;;3.10;2.77;;;15.30;99.90;;;;;;5090283;28;20498;-64
2022/12/25 16:49:46;;;;;;;3.10;2.90;;;15.30;99.90;;;;;;5076939;28;20450;-64
2022/12/25 16:52:13;;;;;;;2.97;2.70;;;15.30;99.90;;;;;;5077549;28;20522;-64
2022/12/25 16:54:39;;;;;;;2.87;2.77;;;15.30;99.90;;;;;;5076929;28;20449;-63
2022/12/25 16:57:06;;;;;;;3.53;2.67;;;15.30;99.90;;;;;;5076542;28;20989;-63
2022/12/25 16:59:34;;;;;;;3.20;3.00;;;15.40;99.90;;;;;;5080134;28;20475;-64
2022/12/25 17:02:01;;;;;;;2.87;2.77;;;15.40;99.90;;;;;;5077558;28;20450;-63
2022/12/25 17:04:29;;;;;;;2.97;2.77;;;15.40;99.90;;;;;;5077200;28;21030;-63
2022/12/25 17:06:56;;;;;;;3.30;2.10;;;15.40;99.90;;;;;;5076687;28;20453;-65
2022/12/25 17:09:23;;;;;;;2.77;2.60;;;15.40;99.90;;;;;;5076663;28;20520;-65
2022/12/25 17:11:50;;;;;;;2.70;2.23;;;15.40;99.90;;;;;;5076181;28;20975;-64
2022/12/25 17:14:16;;;;;;;2.40;2.20;;;15.40;99.90;;;;;;5077697;28;20482;-65
2022/12/25 17:16:43;;;;;;;2.33;2.13;;;15.30;99.90;;;;;;5076094;28;20458;-65
2022/12/25 17:19:16;;;;;;;1.70;1.60;;;15.30;99.90;;;;;;5076098;28;20476;-64
2022/12/25 17:21:44;;;;;;;4.87;1.93;;;15.20;99.90;;;;;;5076132;28;20434;-64
2022/12/25 17:24:10;;;;;;;2.90;2.40;;;15.20;99.90;;;;;;5075924;28;20479;-63
2022/12/25 17:26:39;;;;;;;3.53;2.30;;;15.20;99.90;;;;;;5076041;28;20454;-63
2022/12/25 17:29:06;;;;;;;2.43;2.23;;;15.20;99.90;;;;;;5075921;28;20813;-63
2022/12/25 17:31:33;;;;;;;2.77;2.50;;;15.20;99.90;;;;;;5075821;28;20941;-65
2022/12/25 17:34:00;;;;;;;2.70;2.50;;;15.10;99.90;;;;;;5076128;28;20488;-66
2022/12/25 17:36:27;;;;;;;2.60;2.40;;;15.10;99.90;;;;;;5075878;28;20527;-66
2022/12/25 17:39:01;;;;;;;2.90;2.60;;;15.10;99.90;;;;;;5076003;28;20470;-67
2022/12/25 17:41:28;;;;;;;2.60;2.40;;;15.10;99.90;;;;;;5076017;28;20445;-67
2022/12/25 17:43:55;;;;;;;2.67;2.57;;;15.00;99.90;;;;;;5075881;28;20474;-66
2022/12/25 17:46:23;;;;;;;2.10;2.00;;;15.00;99.90;;;;;;5075766;28;20441;-66
2022/12/25 17:48:52;;;;;;;3.97;3.07;;;15.00;99.90;;;;;;5075434;28;20504;-66
2022/12/25 17:51:21;;;;;;;3.10;3.00;;;15.00;99.90;;;;;;5075524;28;20867;-67
2022/12/25 17:53:50;;;;;;;2.27;2.17;;;15.00;99.90;;;;;;5075404;28;20478;-67
2022/12/25 17:56:31;;;;;;;3.17;2.97;;;14.90;99.90;;;;;;5075525;28;20450;-67
2022/12/25 17:58:59;;;;;;;2.70;2.50;;;14.90;99.90;;;;;;5075347;28;20504;-67
2022/12/25 18:01:27;;;;;;;2.67;2.57;;;14.80;99.90;;;;;;5074701;28;20508;-68
2022/12/25 18:03:54;;;;;;;2.20;2.10;;;14.80;99.90;;;;;;5075992;28;20470;-67
2022/12/25 18:06:24;;;;;;;3.00;2.33;;;14.70;99.90;;;;;;5075787;28;20462;-66
2022/12/25 18:08:50;;;;;;;2.80;2.60;;;14.70;99.90;;;;;;5075600;28;20450;-66
2022/12/25 18:11:20;;;;;;;2.10;2.10;;;14.70;99.90;;;;;;5075578;28;20454;-67
2022/12/25 18:13:50;;;;;;;1.97;1.87;;;14.60;99.90;;;;;;5075623;28;20485;-65
2022/12/25 18:16:18;;;;;;;2.47;2.30;;;14.60;99.90;;;;;;5075602;28;20832;-67
2022/12/25 18:18:45;;;;;;;1.80;1.80;;;14.60;99.90;;;;;;5075095;28;20474;-66
2022/12/25 18:21:12;;;;;;;2.23;2.13;;;14.50;99.90;;;;;;5075242;28;20450;-66
2022/12/25 18:23:39;;;;;;;2.70;2.30;;;14.50;99.90;;;;;;5074935;28;20561;-66
2022/12/25 18:26:10;;;;;;;2.17;1.97;;;14.50;99.90;;;;;;5075142;28;20438;-67
2022/12/25 18:28:37;;;;;;;4.50;2.27;;;14.50;99.90;;;;;;5075369;28;20460;-66
2022/12/25 18:31:09;;;;;;;2.10;2.00;;;14.40;99.90;;;;;;5074917;28;21007;-66
2022/12/25 18:33:35;;;;;;;2.67;2.47;;;14.40;99.90;;;;;;5076230;28;20475;-67
2022/12/25 18:36:02;;;;;;;2.43;2.33;;;14.40;99.90;;;;;;5074931;28;20454;-66
2022/12/25 18:38:30;;;;;;;4.10;3.00;;;14.30;99.90;;;;;;5075244;28;20519;-66
2022/12/25 18:40:56;;;;;;;2.50;2.40;;;14.30;99.90;;;;;;5075164;28;20454;-66
2022/12/25 18:43:23;;;;;;;2.10;2.00;;;14.30;99.90;;;;;;5076139;28;20520;-69
2022/12/25 18:45:56;;;;;;;2.60;2.50;;;14.20;99.90;;;;;;5075701;28;20461;-68
2022/12/25 18:48:24;;;;;;;2.47;2.30;;;14.20;99.90;;;;;;5076121;28;20435;-70
2022/12/25 18:50:57;;;;;;;2.30;2.10;;;14.10;99.90;;;;;;5075432;28;20929;-69
2022/12/25 18:53:26;;;;;;;2.20;2.10;;;14.20;99.90;;;;;;5075192;28;20566;-69
2022/12/25 18:55:53;;;;;;;2.70;2.50;;;14.10;99.90;;;;;;5075509;28;20438;-69
2022/12/25 18:58:21;;;;;;;2.47;2.33;;;14.10;99.90;;;;;;5075349;28;20533;-68
2022/12/25 19:00:49;;;;;;;2.20;2.10;;;14.10;99.90;;;;;;5075437;28;20435;-68
2022/12/25 19:03:15;;;;;;;3.50;2.97;;;14.10;99.90;;;;;;5075576;28;20470;-70
2022/12/25 19:05:43;;;;;;;2.77;2.57;;;14.10;99.90;;;;;;5076306;28;20442;-69
2022/12/25 19:08:10;;;;;;;4.63;4.17;;;14.10;99.90;;;;;;5076064;28;20434;-69
2022/12/25 19:10:38;;;;;;;3.50;3.20;;;14.00;99.90;;;;;;5076864;28;20931;-70
2022/12/25 19:13:05;;;;;;;3.57;3.27;;;14.00;99.90;;;;;;5076398;28;20470;-69
2022/12/25 19:15:31;;;;;;;3.30;3.10;;;14.00;99.90;;;;;;5074862;28;20438;-70
2022/12/25 19:17:58;;;;;;;2.67;2.47;;;13.90;99.90;;;;;;5075170;28;20474;-69
2022/12/25 19:20:25;;;;;;;3.63;2.93;;;13.90;99.90;;;;;;5075396;28;20454;-70
2022/12/25 19:22:53;;;;;;;2.97;2.87;;;13.90;99.90;;;;;;5075180;28;20474;-70
2022/12/25 19:25:20;;;;;;;3.43;3.23;;;13.80;99.90;;;;;;5075254;28;20457;-69
2022/12/25 19:27:46;;;;;;;5.40;2.67;;;13.80;99.90;;;;;;5075134;28;20900;-72
2022/12/25 19:30:13;;;;;;;2.67;2.57;;;13.90;99.90;;;;;;5075925;28;20508;-71
2022/12/25 19:32:40;;;;;;;2.90;2.47;;;13.80;99.90;;;;;;5075534;28;20527;-73
2022/12/25 19:35:07;;;;;;;3.17;2.97;;;13.80;99.90;;;;;;5075098;28;20450;-70
2022/12/25 19:37:34;;;;;;;2.53;2.33;;;13.80;99.90;;;;;;5075305;28;21070;-70
2022/12/25 19:40:02;;;;;;;2.80;2.60;;;13.70;99.90;;;;;;5074499;28;20537;-70
2022/12/25 19:42:29;;;;;;;2.80;2.60;;;13.70;99.90;;;;;;5074944;28;20505;-70
2022/12/25 19:44:56;;;;;;;2.67;2.47;;;13.70;99.90;;;;;;5075539;28;20453;-71
2022/12/25 19:47:22;;;;;;;3.30;2.60;;;13.70;99.90;;;;;;5075164;28;20461;-70
2022/12/25 19:49:49;;;;;;;3.70;3.40;;;13.70;99.90;;;;;;5074024;28;20449;-71
2022/12/25 19:52:16;;;;;;;2.50;2.30;;;13.70;99.90;;;;;;5074135;28;20476;-71
2022/12/25 19:54:42;;;;;;;4.60;2.60;;;13.70;99.90;;;;;;5074276;28;20934;-70
2022/12/25 19:57:10;;;;;;;3.00;2.80;;;13.70;99.90;;;;;;5074634;28;20434;-68
2022/12/25 19:59:37;;;;;;;3.07;2.87;;;13.60;99.90;;;;;;5074004;28;20458;-70
2022/12/25 20:02:04;;;;;;;5.17;2.90;;;13.60;99.90;;;;;;5074430;28;20477;-73
2022/12/25 20:04:30;;;;;;;3.10;2.90;;;13.60;99.90;;;;;;5074537;28;20861;-73
2022/12/25 20:06:57;;;;;;;3.30;2.97;;;13.60;99.90;;;;;;5074073;28;20450;-72
2022/12/25 20:09:24;;;;;;;3.77;3.13;;;13.70;99.90;;;;;;5073994;28;20441;-69
2022/12/25 20:11:50;;;;;;;3.10;2.90;;;13.60;99.90;;;;;;5074203;28;20465;-69
2022/12/25 20:14:19;;;;;;;3.20;3.00;;;13.60;99.90;;;;;;5074179;28;20592;-68
2022/12/25 20:16:45;;;;;;;2.70;2.60;;;13.60;99.90;;;;;;5074019;28;20446;-68
2022/12/25 20:19:13;;;;;;;2.73;2.63;;;13.60;99.90;;;;;;5073801;28;20474;-71
2022/12/25 20:21:40;;;;;;;2.70;2.50;;;13.60;99.90;;;;;;5075694;28;20476;-70
2022/12/25 20:24:09;;;;;;;3.23;3.00;;;13.40;99.90;;;;;;5087773;28;20470;-70
2022/12/25 20:26:37;;;;;;;2.93;2.53;;;13.40;99.90;;;;;;5090500;28;20499;-70
2022/12/25 20:29:04;;;;;;;2.90;2.70;;;13.30;99.90;;;;;;5088319;28;20794;-70
2022/12/25 20:31:34;;;;;;;2.63;2.53;;;13.40;99.90;;;;;;5082939;28;20457;-70
2022/12/25 20:34:05;;;;;;;2.47;2.37;;;13.30;99.90;;;;;;5081599;28;20496;-71
2022/12/25 20:36:32;;;;;;;2.83;2.67;;;13.30;99.90;;;;;;5079225;28;20468;-71
2022/12/25 20:38:58;;;;;;;2.93;2.70;;;13.40;99.90;;;;;;5076720;28;21011;-70
2022/12/25 20:41:25;;;;;;;2.83;2.63;;;13.40;99.90;;;;;;5076903;28;20933;-70
2022/12/25 20:43:52;;;;;;;2.83;2.63;;;13.40;99.90;;;;;;5076768;28;20531;-69
2022/12/25 20:46:19;;;;;;;3.23;3.03;;;13.40;99.90;;;;;;5077002;28;20481;-70
2022/12/25 20:48:47;;;;;;;3.10;2.90;;;13.40;99.90;;;;;;5076824;28;20454;-70
2022/12/25 20:51:15;;;;;;;2.87;2.73;;;13.40;99.90;;;;;;5077055;28;20439;-70
2022/12/25 20:53:42;;;;;;;3.10;3.00;;;13.40;99.90;;;;;;5076903;28;20980;-71
2022/12/25 20:56:09;;;;;;;3.03;2.83;;;13.40;99.90;;;;;;5076777;28;20572;-70
2022/12/25 20:58:36;;;;;;;2.90;2.70;;;13.40;99.90;;;;;;5076747;28;20519;-70
2022/12/25 21:01:06;;;;;;;2.87;2.60;;;13.40;99.90;;;;;;5076438;28;20972;-71
2022/12/25 21:03:33;;;;;;;4.80;4.50;;;13.40;99.90;;;;;;5076691;28;20512;-69
2022/12/25 21:06:01;;;;;;;3.20;3.00;;;13.40;99.90;;;;;;5076559;28;20522;-69
2022/12/25 21:08:29;;;;;;;3.77;3.47;;;13.40;99.90;;;;;;5076325;28;20450;-69
2022/12/25 21:10:59;;;;;;;4.30;4.00;;;13.40;99.90;;;;;;5076331;28;20812;-69
2022/12/25 21:13:28;;;;;;;3.70;3.40;;;13.40;99.90;;;;;;5076274;28;20492;-69
2022/12/25 21:15:55;;;;;;;3.23;3.03;;;13.40;99.90;;;;;;5076259;28;20434;-69
2022/12/25 21:18:23;;;;;;;3.50;3.07;;;13.40;99.90;;;;;;5076683;28;20999;-69
2022/12/25 21:20:51;;;;;;;4.63;3.30;;;13.40;99.90;;;;;;5076143;28;20450;-68
2022/12/25 21:23:19;;;;;;;5.57;3.60;;;13.30;99.90;;;;;;5075608;28;20885;-68
2022/12/25 21:25:47;;;;;;;9.30;3.50;;;13.20;99.90;;;;;;5076073;28;20516;-68
2022/12/25 21:28:14;;;;;;;3.70;3.40;;;13.20;99.90;;;;;;5075619;28;20457;-70
2022/12/25 21:30:42;;;;;;;3.50;3.20;;;13.20;99.90;;;;;;5076125;28;20454;-70
2022/12/25 21:35:56;;;;;;;3.83;3.53;;;13.20;99.90;;;;;;5075392;28;20438;-70
2022/12/25 21:38:24;;;;;;;3.10;2.90;;;13.10;99.90;;;;;;5075205;28;20478;-69
2022/12/25 21:40:50;;;;;;;3.70;3.40;;;13.20;99.90;;;;;;5075282;28;20461;-69
2022/12/25 21:43:17;;;;;;;3.47;3.20;;;13.20;99.90;;;;;;5075495;28;20473;-69
2022/12/25 21:45:44;;;;;;;3.90;3.60;;;13.10;99.90;;;;;;5075073;28;20906;-69
2022/12/25 21:48:12;;;;;;;2.90;2.70;;;13.20;99.90;;;;;;5075438;28;20454;-70
2022/12/25 21:53:24;;;;;;;3.20;2.93;;;13.30;99.90;;;;;;5075427;28;20453;-71
2022/12/25 21:55:59;;;;;;;3.13;2.87;;;13.20;99.90;;;;;;5075292;28;20469;-68
2022/12/25 21:58:26;;;;;;;2.87;2.70;;;13.20;99.90;;;;;;5075211;28;20462;-68
2022/12/25 22:00:53;;;;;;;3.57;3.23;;;13.20;99.90;;;;;;5075537;28;20458;-69
2022/12/25 22:03:20;;;;;;;3.77;3.47;;;13.20;99.90;;;;;;5075083;28;20489;-69
2022/12/25 22:08:32;;;;;;;4.43;4.00;;;13.30;99.90;;;;;;5075784;28;20927;-69
2022/12/25 22:11:02;;;;;;;3.13;2.83;;;13.30;99.90;;;;;;5075200;28;20844;-69
2022/12/25 22:21:41;;;;;;;3.40;3.10;;;13.40;99.90;;;;;;5074731;28;20798;-69
2022/12/25 22:24:09;;;;;;;3.37;3.13;;;13.40;99.90;;;;;;5074364;28;21041;-69
2022/12/25 22:26:36;;;;;;;2.87;2.77;;;13.50;99.90;;;;;;5074905;28;20508;-68
2022/12/25 22:29:03;;;;;;;2.90;2.67;;;13.50;99.90;;;;;;5074790;28;20454;-69
2022/12/25 22:31:29;;;;;;;4.37;2.90;;;13.50;99.90;;;;;;5074718;28;20434;-69
2022/12/25 22:33:56;;;;;;;2.57;2.40;;;13.50;99.90;;;;;;5074496;28;20474;-69
2022/12/25 22:36:23;;;;;;;2.77;2.60;;;13.60;99.90;;;;;;5074336;28;20465;-64
2022/12/25 22:38:49;;;;;;;3.27;2.67;;;13.70;99.90;;;;;;5074489;28;20527;-62
2022/12/25 22:41:17;;;;;;;3.63;2.97;;;13.70;99.90;;;;;;5074445;28;20832;-62
2022/12/25 22:43:44;;;;;;;2.60;2.43;;;13.70;99.90;;;;;;5074867;28;20597;-65
2022/12/25 22:46:10;;;;;;;3.13;2.80;;;13.70;99.90;;;;;;5073731;28;20461;-65
2022/12/25 22:48:37;;;;;;;3.00;2.80;;;13.70;99.90;;;;;;5074372;28;20451;-65
2022/12/25 22:51:04;;;;;;;3.00;2.80;;;13.70;99.90;;;;;;5074357;28;20504;-64
2022/12/25 22:53:31;;;;;;;2.90;2.70;;;13.70;99.90;;;;;;5074337;28;20470;-64
2022/12/25 22:55:58;;;;;;;3.30;3.10;;;13.70;99.90;;;;;;5073919;28;21003;-63
2022/12/25 22:58:26;;;;;;;3.10;2.80;;;13.80;99.90;;;;;;5074271;28;20496;-64
2022/12/25 23:00:52;;;;;;;3.07;2.87;;;13.70;99.90;;;;;;5074123;28;20457;-64
2022/12/25 23:03:19;;;;;;;3.73;3.20;;;13.60;99.90;;;;;;5073939;28;20525;-65
2022/12/25 23:05:53;;;;;;;2.60;2.50;;;13.60;99.90;;;;;;5073955;28;20454;-64
2022/12/25 23:08:20;;;;;;;2.70;2.50;;;13.60;99.90;;;;;;5074330;28;20434;-64
2022/12/25 23:10:47;;;;;;;3.13;2.90;;;13.60;99.90;;;;;;5074221;28;20450;-64
2022/12/25 23:15:59;;;;;;;3.47;2.70;;;13.70;99.90;;;;;;5074091;28;20479;-63
2022/12/25 23:26:53;;;;;;;3.40;3.10;;;13.70;99.90;;;;;;5082940;28;20414;-63
2022/12/25 23:29:34;;;;;;;3.23;3.00;;;13.70;99.90;;;;;;5077439;28;20507;-63
2022/12/25 23:32:03;;;;;;;3.13;2.67;;;13.70;99.90;;;;;;5074460;28;20434;-63
2022/12/25 23:34:30;;;;;;;3.47;3.10;;;13.60;99.90;;;;;;5074219;28;20470;-62
2022/12/25 23:36:57;;;;;;;3.03;2.80;;;13.60;99.90;;;;;;5074420;28;20511;-62
2022/12/25 23:39:23;;;;;;;2.83;2.67;;;13.60;99.90;;;;;;5073828;28;20976;-62
2022/12/25 23:41:50;;;;;;;3.80;2.90;;;13.60;99.90;;;;;;5073477;28;20960;-63
